Corredores del Istmo

Regresar al Calendario

CORREDORES DEL ISTMO
CARRERA  DE 21 KM - ALBROOK - ABRIL 7, 2002
TEMPERATURA: 76-85°F (24-29°C)  HUMEDAD: 69-93%  SOL TIEMPO PAR: 1:28:23
Organizador:  Eduardo Laguna

--------LUGAR-------                                                        ------PASO-----
OA CATEG. HCP. NO. EQUIPO  NOMBRE         EDAD TIEMPO CORREGIDO  DIFF INDICE /KM   /MI
1   1S   2  207      Agustin Morán         36  1:11:43 1:11:43  -16:39 123  3:24  5:29
2   2S   1  942      Guillermo Ramirez     38  1:11:52 1:11:03  -17:19 124  3:25  5:30
3   1M   4  894      Simón Alvarado        40  1:14:22 1:12:31  -15:51 122  3:32  5:41
4   3S   7  519  03  Nicolás García        34  1:15:09 1:15:09  -13:14 118  3:34  5:45
5   2M   6  312  03  Ricardo Concepción    42  1:17:26 1:14:26  -13:56 119  3:41  5:56
6   4S  11  248  03  Bruno Ramos           35  1:18:37 1:18:37  - 9:45 112  3:44  6:01
7   1A  13  425  03  Diego Coronado        26  1:19:35 1:19:35  - 8:47 111  3:47  6:05
8   2A  14  953      Alberto Jaen          29  1:19:39 1:19:39  - 8:43 111  3:47  6:06
9   1G   3  360      Edgardo Miranda       50  1:19:50 1:12:15  -16:07 122  3:48  6:07
10  3A  16  944  04  Juan Alvarado         20  1:21:41 1:21:41  - 6:41 108  3:53  6:15
11  3M   9  422  01  Manuel Camaño         47  1:22:35 1:16:29  -11:54 116  3:55  6:19
12  2G   5   40  03  Gil Balbuena          53  1:23:50 1:14:01  -14:21 119  3:59  6:25
13          254      Camaño                    1:23:52                      3:59  6:25
14  4M  15  339      Manuel Alvarez        42  1:24:48 1:21:30  - 6:53 108  4:02  6:29
15  5M  10   83  04  Anselmo Broce         48  1:25:20 1:18:27  - 9:56 113  4:03  6:32
16  6S  25  641      Fernando Barsallo     35  1:26:07 1:26:07  - 2:15 103  4:06  6:35
17  6M  18   69  03  Aramis Mora           43  1:26:20 1:22:23  - 6:00 107  4:06  6:36
18  7M  12   95  04  Jose A. Fernández     49  1:26:24 1:18:49  - 9:34 112  4:06  6:37
19  4A  26  662      José Pinzón           29  1:26:52 1:26:52  - 1:30 102  4:08  6:39
20  7S  30  365      Eleuterio Rodriguez   35  1:28:24 1:28:24  +  :00 100  4:12  6:46
21  8S  34  767      José Sanchez          33  1:30:07 1:30:07  + 1:44  98  4:17  6:54
22  9S  32  729  04  Guillermo Toruño      39  1:30:58 1:29:20  +  :57  99  4:19  6:58
23 10S  38  825      Reynaldo Samaniego    34  1:31:22 1:31:22  + 2:58  97  4:21  7:00
24 11S  39  495      Javier Chong          32  1:32:03 1:32:03  + 3:39  96  4:23  7:03
25  3G  21  474      Zenen Carrillo        50  1:32:35 1:23:47  - 4:36 105  4:24  7:05
26  1J  35  448      Luis Alberto Camaño   17  1:32:43 1:30:24  + 2:01  98  4:24  7:06
27  4G  20  484  01  Edmundo Andrión       51  1:33:10 1:23:39  - 4:44 106  4:26  7:08
28  8M  37  657      Mauricio González     40  1:33:16 1:30:57  + 2:34  97  4:26  7:08
29  5A  42  782      Alejandro San Vicente 27  1:33:31 1:33:31  + 5:08  95  4:27  7:09
30  5G  24  228      Lescano Ureña         50  1:33:34 1:24:40  - 3:42 104  4:27  7:10
31  6A  44  414      Jolan Castillo C.     28  1:34:20 1:34:20  + 5:57  94  4:29  7:13
32  7A  45  959      José Ramos            28  1:35:04 1:35:04  + 6:40  93  4:31  7:17
33  9M  36  665  04  Lorenzo Moreno        43  1:35:13 1:30:52  + 2:29  97  4:32  7:17
34 10M  41  753      José Manuel Vásquez   40  1:35:52 1:33:28  + 5:05  95  4:33  7:20
35 11M  33  282  03  Nicolás Coronado      46  1:36:05 1:29:41  + 1:17  99  4:34  7:21
36 12S  46  185      Alexis Santamaría     31  1:36:13 1:36:13  + 7:49  92  4:34  7:22
37 12M  28  847      Roberto Rodriguez     49  1:36:13 1:27:45  -  :38 101  4:34  7:22
38 1MF   8  648      Gilda de Moran        41  1:36:40 1:16:27  -11:55 116  4:36  7:24
39  6G  19  820  01  Hilario Barría        58  1:37:52 1:22:45  - 5:38 107  4:39  7:29
40  8A  63  133      Javier Decerega       28  1:42:20 1:42:20  +13:57  86  4:52  7:50
41 13M  49  943      Felix de Sedas        42  1:41:22 1:37:26  + 9:03  91  4:49  7:46
42 14M  52  348  01  Mario Caliendo        41  1:42:19 1:39:03  +10:40  89  4:52  7:50
43 13S  57  786  01  Vladimir Bolaños      39  1:42:25 1:40:34  +12:10  88  4:52  7:50
44 15M  51  677      Robinson González     43  1:42:40 1:37:58  + 9:34  90  4:53  7:51
45 1SF  22  758  04  Loren Miranda         36  1:42:54 1:24:04  - 4:19 105  4:54  7:53
46 1AF  23  596      Areli de Coronado     27  1:43:31 1:24:34  - 3:49 105  4:55  7:55
47 14S  64  101      Jose Decerega         31  1:43:46 1:43:46  +15:22  85  4:56  7:57
48  9A  66  543      Olivier Romero        26  1:43:55 1:43:55  +15:31  85  4:56  7:57
49 16M  55  247      Mario Herrera         43  1:44:28 1:39:42  +11:18  89  4:58  8:00
50 17M  47  688  01  Moises Barragán       47  1:44:43 1:37:00  + 8:36  91  4:59  8:01
51 18M  56  780      Vasco Gernado         44  1:45:46 1:40:23  +11:59  88  5:02  8:06
52 7G  43   513      Rodrigo Espinosa      53  1:45:56 1:33:33  + 5:10  94  5:02  8:07
53 10A  73  762      Mike Merker           22  1:46:25 1:46:25  +18:02  83  5:04  8:09
54 11A  74  941      Javier Gonzalez       27  1:46:56 1:46:56  +18:33  83  5:05  8:11
55 19M  69  234      Fernando Toledo       40  1:47:04 1:44:25  +16:01  85  5:05  8:12
56 20M  60   89      Armando López         45  1:47:10 1:40:57  +12:34  88  5:06  8:12
57  8G  48  407      Alfonso Pérez         50  1:47:31 1:37:18  + 8:54  91  5:07  8:14
58  1V  27   72  01  Lionel Jiménez        62  1:47:37 1:27:37  -  :45 101  5:07  8:14
59 12A  75  722      Elvin Ortiz           20  1:47:49 1:47:49  +19:26  82  5:08  8:15
60 21M  59  717      Alfonso Ardines       46  1:47:56 1:40:44  +12:21  88  5:08  8:16
61  2AF 31  960  04  Sara Hernandez        26  1:48:16 1:28:28  +  :04 100  5:09  8:17
62 13A  76  852      Edwin Bello           27  1:48:40 1:48:40  +20:17  81  5:10  8:19
63 22M  53  197      José Gómez            49  1:49:04 1:39:29  +11:06  89  5:11  8:21
64 23M  54  188      Saúl Noblesilla       49  1:49:09 1:39:33  +11:09  89  5:11  8:21
65 24M  71  811      Jorge Lombardo        43  1:49:34 1:44:33  +16:09  85  5:13  8:23
66 2SF  29  547  04  Eira Hurtado          39  1:49:48 1:28:05  -  :18 100  5:13  8:24
67 15S  77  655  02  Elmer Ortiz           38  1:49:58 1:48:45  +20:21  81  5:14  8:25
68 14A  80  957      Victor Barrios        25  1:50:07 1:50:07  +21:44  80  5:14  8:26
69 15A  82  531      Alexis Espino         27  1:51:00 1:51:00  +22:36  80  5:17  8:30
70 25M  72  612      Carlos Crocamo        45  1:51:01 1:44:34  +16:11  85  5:17  8:30
71 16S  86  961      Jaime Moráles R.      34  1:52:58 1:52:58  +24:35  78  5:22  8:39
72 26M  81  311      Eladio Quintero       40  1:53:07 1:50:18  +21:55  80  5:23  8:40
73  9G  61  201  03  Humberto Villareal    51  1:53:40 1:42:03  +13:39  87  5:24  8:42
74 17S  87  326      Eliecer Quintero      30  1:53:54 1:53:54  +25:30  78  5:25  8:43
75 16A  89  837      Esteban Mayas         25  1:54:16 1:54:16  +25:53  77  5:26  8:45
76 27M  70   47      Leovigildo Castillo   49  1:54:28 1:44:25  +16:01  85  5:27  8:46
77 10G  62  142      Guillermo Quiñones    52  1:54:39 1:42:05  +13:41  87  5:27  8:47
78 18S  91   49      George Shoemaker      35  1:55:31 1:55:31  +27:07  77  5:30  8:51
79 11G  67  545      Gregorio Miró         51  1:55:56 1:44:05  +15:41  85  5:31  8:53
80 19S  92  464      Marco Gandasegui      34  1:56:22 1:56:22  +27:58  76  5:32  8:54
81 28M  85  900      Irving Bennett        41  1:56:40 1:52:58  +24:34  78  5:33  8:56
82 12G  68  955      Victor Ilagan         54  1:58:55 1:44:09  +15:46  85  5:39  9:06
83  2MF  39 369      Isabel Sirera         44  2:00:05 1:33:07  + 4:43  95  5:43  9:12
84 20S  94  761      Rolando Trujillo      39  2:01:18 1:59:06  +30:43  74  5:46  9:17
85 13G  79  954      Luis A. Camaño        51  2:01:40 1:49:14  +20:50  81  5:47  9:19
86 29M  83  430      Johnny Santamaría     49  2:01:58 1:51:14  +22:51  79  5:48  9:20
87 30M  84  702      Sebastian Concepción  49  2:02:13 1:51:29  +23:05  79  5:49  9:21
88 31M  90  869      Aquilino Arauz        45  2:02:19 1:55:14  +26:50  77  5:49  9:22
89  2V  58  653      Jorge Romero          63  2:04:49 1:40:38  +12:14  88  5:56  9:33
90 32M  88  939      Ricardo Cupas         49  2:04:58 1:53:58  +25:35  78  5:57  9:34
91 33M  95  673      Jorge Riba            43  2:14:52 2:08:42  +40:18  69  6:25 10:20
92 14G  93   73      Freddy García         54  2:15:07 1:58:20  +29:56  75  6:26 10:21
93 21S  97  954      Alexis Arosemena      39  2:20:18 2:17:46  +49:22  64  6:40 10:44
94 22S  98  254      Gilberto Robles       39  2:21:34 2:19:01  +50:37  64  6:44 10:50
95 3MF  78  284      Griselda Guerra       45  2:21:37 1:48:59  +20:35  81  6:44 10:51
96 1SV  50   44  01  Luis Díaz M.          76  2:21:43 1:37:44  + 9:20  90  6:44 10:51
97 15G  96  192      Gustavo Gordon        52  2:29:18 2:12:56  +44:32  66  7:06 11:26
98 17A  99  897      Carlos A. Nuñez       29  2:31:52 2:31:52+1:03:29  58  7:13 11:38
99 1VF  65   74      Edilia Camargo        63  2:37:45 1:43:54  +15:30  85  7:30 12:05

Equipos:  01 ASICS      02 PIONEER     03 FILA     04 PUMA

CORREDORES DEL ISTMO
CARRERA  DE 4 KM - ALBROOK - ABRIL 7, 2002
TEMPERATURA: 76-78°F (24-26°C)  HUMEDAD: 90-93%  SOL TIEMPO PAR: 15:20

--------LUGAR-------                                                        ------PASO-----
OA CATEG. HCP. NO. EQUIPO  NOMBRE         EDAD TIEMPO CORREGIDO  DIFF INDICE /KM   /MI
1   1A   2  952      Luis Henriquez        23    13:07   13:07  - 2:12 117  3:16  5:16
2   1J   1  462      Charles Gale          15    13:16   12:39  - 2:40 121  3:19  5:20
3   2A   3  945      Jovani Chavez         22    13:28   13:28  - 1:51 114  3:22  5:25
4   3A   4  534      José Córdoba          20    13:40   13:40  - 1:40 112  3:25  5:29
5   4A   5  503      Geovani Moreno        21    13:43   13:43  - 1:36 112  3:25  5:31
6   5A   6  549      Friederick Almengor   22    13:56   13:56  - 1:23 110  3:29  5:36
7   6A  12  949      Aristides Gobea       21    14:58   14:58  -  :21 102  3:44  6:01
8   7A  16  951      Oswaldo Mejia         21    15:10   15:10  -  :10 101  3:47  6:06
9   2J   8  550      Yassir Cabrera        14    15:25   14:29  -  :50 106  3:51  6:12
10  3J  17  928      Luis Alejandro Camaño 15    15:56   15:13  -  :06 101  3:59  6:24
11  4J  13  638      Diogenes Zárate hijo  14    16:06   15:07  -  :12 101  4:01  6:28
12  5J  10  473      Billy Gordon          12    16:21   14:43  -  :36 104  4:05  6:34
13  6J  14  801      Amilcar Chan          13    16:25   15:07  -  :12 101  4:06  6:36
14  1M  21  50       Arturo Santizo        43    16:43   15:44  +  :24  97  4:10  6:43
15  7J  20  870      Rafael Rojas          13    16:55   15:35  +  :15  98  4:13  6:48
16  8J  22  453      Marcos Montoya        15    17:27   16:39  + 1:19  92  4:21  7:01
17  1AF  7  269      Maritza Sension       21    17:40   14:26  -  :53 106  4:25  7:06
18  2AF  9  919      Johana Gonzalez       20    17:51   14:35  -  :45 105  4:27  7:10
19  1JF 11  220      Dahaira Reyes         19    18:27   14:57  -  :22 102  4:36  7:25
20  1G  19  497      Arturo Volvarán       58    18:28   15:25  +  :05  99  4:37  7:26
21  1SF 18  869      Marcela Astudillo     34    18:52   15:24  +  :04  99  4:43  7:35
22  1S  26  584      Jorge Adrian Rodríguez34    19:10   19:10  + 3:49  80  4:47  7:42
23  9J  23  849      John Seivert          13    19:57   18:23  + 3:03  83  4:59  8:01
24  1MF 15  838  03  Yira Pérez            46    20:07   15:09  -  :11 101  5:01  8:05
25  10J 25  938      Alonso Santos         13    20:46   19:08  + 3:48  80  5:11  8:21
26  11J 29  929      Luis Antonio Camaño   13    21:12   19:32  + 4:12  78  5:18  8:31
27  12J 24  477      Rodolfo Perez         11    21:13   18:37  + 3:17  82  5:18  8:32
28  13J 27  229      Walter Josue Clearey  12    21:16   19:10  + 3:50  80  5:19  8:33
29  14J 30  936      Alfredo Alvaro        13    22:28   20:43  + 5:23  74  5:37  9:02
30  15J 31  937      Jemmyr Espinosa       13    22:30   20:44  + 5:24  74  5:37  9:03
31  8A  35  275      Eligio González       28    22:37   22:37  + 7:17  68  5:39  9:06
32  16J 33  870      Rafael Rojas          13    22:38   20:52  + 5:32  73  5:39  9:06
33  9A  37  196      Hanibal Vergara       28    23:23   23:23  + 8:03  66  5:50  9:24
34  2G  32  927      Ricardo Bermúdez      54    24:04   20:47  + 5:27  74  6:01  9:40
35  2JF 28  230      Walkiria S. Clearey   11    27:13   19:30  + 4:10  79  6:48 10:56
36  2M  38  193      Antonio Gordon        41    28:40   27:23  +12:03  56  7:10 11:31
37  2SF 36  633      Eira Castillo         39    28:42   22:43  + 7:23  67  7:10 11:32
38  2MF 34  926      Luz María Camaño      44    29:36   22:36  + 7:16  68  7:24 11:54
39  17J 40  958      Asael Vaca            13    33:20   30:44  +15:24  50  8:20 13:24
40  3JF 39  774      Genesis Rowe          13    40:31   30:31  +15:11  50 10:07 16:18

To contact us:

Phone: 507-261-8791
Email: ajones@cableonda.net